^^
Meteo Knjazevac Station Historical Data
Daily Summary for January 21, 2022 Units:  Metric    English   Both
Daily Weekly Monthly Yearly Custom
  High: Low: Average:
Temperature: 3.5 °C 0.1 °C 1.2 °C
Dew Point: 2 °C -2.2 °C -0.4 °C
Humidity: 98% 74% 89%
Wind Speed: 14.5km/h 0km/h 5.3km/h
Wind Gust: 25.7km/h - -
Wind- - SW
Pressure: 1023.6 hPa 1019.2 hPa -
Precipitation: 3.3 mm    
Historical Graphs
 
 
Tabular Data for January 21, 2022
Time Temperature Dew Point Pressure Wind Wind Speed Wind Gust Humidity Rainfall Rate (Hourly) solar Conditions
00:00 3.5 °C 2 °C 1019.2 hPa NNE 3.2 km/h 12.9 km/h 90% 0 mm 0 W/m2
00:10 3.3 °C 2 °C 1019.5 hPa NNE 4.8 km/h 12.9 km/h 91% 0 mm 0 W/m2
00:20 3.1 °C 1.8 °C 1019.5 hPa NNE 9.7 km/h 16.1 km/h 91% 0 mm 0 W/m2
00:30 2.8 °C 1.5 °C 1019.5 hPa NNE 9.7 km/h 19.3 km/h 91% 0 mm 0 W/m2
00:40 2.6 °C 1.6 °C 1019.9 hPa NNE 8 km/h 19.3 km/h 93% 0 mm 0 W/m2
00:50 2.4 °C 1.4 °C 1019.5 hPa NNE 3.2 km/h 9.7 km/h 93% 0.25 mm 0 W/m2
01:00 2.2 °C 1.2 °C 1019.9 hPa NNE 1.6 km/h 6.4 km/h 93% 0 mm 0 W/m2
01:10 2.1 °C 1.1 °C 1019.9 hPa NNE 1.6 km/h 6.4 km/h 93% 0 mm 0 W/m2
01:20 2 °C 1.1 °C 1020.2 hPa North 1.6 km/h 8 km/h 94% 0 mm 0 W/m2
01:30 1.9 °C 1.1 °C 1020.2 hPa NNW 1.6 km/h 8 km/h 94% 0 mm 0 W/m2
01:40 1.8 °C 0.9 °C 1020.2 hPa WNW 1.6 km/h 6.4 km/h 94% 0 mm 0 W/m2
01:50 1.7 °C 0.8 °C 1020.2 hPa NW 1.6 km/h 8 km/h 94% 0 mm 0 W/m2
02:00 1.6 °C 0.7 °C 1020.2 hPa Calm   4.8 km/h 94% 0 mm 0 W/m2
02:10 1.4 °C 0.6 °C 1019.9 hPa West 1.6 km/h 3.2 km/h 94% 0 mm 0 W/m2
02:20 1.3 °C 0.6 °C 1019.9 hPa SW 1.6 km/h 4.8 km/h 95% 0 mm 0 W/m2
02:30 1.2 °C 0.5 °C 1019.9 hPa WSW 3.2 km/h 6.4 km/h 95% 0 mm 0 W/m2
02:40 1.1 °C 0.4 °C 1019.9 hPa West 1.6 km/h 8 km/h 95% 0 mm 0 W/m2
02:50 1.1 °C 0.6 °C 1020.2 hPa West 4.8 km/h 8 km/h 96% 0 mm 0 W/m2
03:00 1 °C 0.4 °C 1020.2 hPa WNW 3.2 km/h 6.4 km/h 96% 0 mm 0 W/m2
03:10 1 °C 0.4 °C 1020.2 hPa NW 3.2 km/h 8 km/h 96% 0 mm 0 W/m2
03:20 1 °C 0.7 °C 1020.2 hPa NNW 1.6 km/h 4.8 km/h 98% 0 mm 0 W/m2
03:30 1 °C 0.7 °C 1020.2 hPa NNW 1.6 km/h 3.2 km/h 98% 0 mm 0 W/m2
03:40 1 °C 0.7 °C 1020.5 hPa North 4.8 km/h 12.9 km/h 98% 0 mm 0 W/m2
03:50 0.8 °C 0.5 °C 1020.5 hPa Calm   11.3 km/h 98% 0 mm 0 W/m2
04:00 0.8 °C 0.5 °C 1020.5 hPa NE 4.8 km/h 9.7 km/h 98% 0 mm 0 W/m2
04:10 0.7 °C 0.4 °C 1020.9 hPa Calm   9.7 km/h 98% 0 mm 0 W/m2
04:20 0.7 °C 0.4 °C 1020.9 hPa NNE 4.8 km/h 9.7 km/h 98% 0 mm 0 W/m2
04:30 0.7 °C 0.1 °C 1020.9 hPa North 4.8 km/h 11.3 km/h 96% 0 mm 0 W/m2
04:40 0.7 °C -0.2 °C 1021.2 hPa NNE 4.8 km/h 19.3 km/h 94% 0 mm 0 W/m2
04:50 0.7 °C -0.2 °C 1021.2 hPa North 1.6 km/h 16.1 km/h 94% 0 mm 0 W/m2
05:00 0.7 °C -0.2 °C 1021.2 hPa NNW 1.6 km/h 8 km/h 94% 0 mm 0 W/m2
05:10 0.7 °C 0 °C 1021.2 hPa West 1.6 km/h 4.8 km/h 95% 0 mm 0 W/m2
05:20 0.7 °C 0 °C 1021.2 hPa South 1.6 km/h 3.2 km/h 95% 0 mm 0 W/m2
05:30 0.6 °C -0.1 °C 1021.2 hPa SW 3.2 km/h 4.8 km/h 95% 0 mm 0 W/m2
05:40 0.5 °C -0.2 °C 1021.2 hPa WNW 3.2 km/h 6.4 km/h 95% 0 mm 0 W/m2
05:50 0.5 °C -0.2 °C 1021.2 hPa WSW 1.6 km/h 6.4 km/h 95% 0 mm 0 W/m2
06:00 0.6 °C -0.1 °C 1021.6 hPa West 4.8 km/h 11.3 km/h 95% 0 mm 0 W/m2
06:10 0.5 °C -0.2 °C 1021.6 hPa West 8 km/h 11.3 km/h 95% 0 mm 0 W/m2
06:20 0.5 °C -0.3 °C 1021.2 hPa WSW 8 km/h 11.3 km/h 94% 0 mm 0 W/m2
06:30 0.5 °C -0.5 °C 1021.6 hPa WSW 3.2 km/h 11.3 km/h 93% 0 mm 0 W/m2
06:40 0.5 °C -0.5 °C 1021.9 hPa NW 4.8 km/h 8 km/h 93% 0 mm 0 W/m2
06:50 0.4 °C -0.9 °C 1021.9 hPa WSW 11.3 km/h 16.1 km/h 91% 0 mm 0 W/m2
07:00 0.3 °C -1.2 °C 1021.9 hPa WSW 11.3 km/h 20.9 km/h 90% 0 mm 1 W/m2
07:10 0.3 °C -1.2 °C 1022.2 hPa WSW 11.3 km/h 20.9 km/h 90% 0 mm 3 W/m2
07:20 0.3 °C -1.2 °C 1022.2 hPa West 3.2 km/h 14.5 km/h 90% 0 mm 6 W/m2
07:30 0.2 °C -1.2 °C 1022.6 hPa WSW 1.6 km/h 8 km/h 90% 0 mm 13 W/m2
07:40 0.2 °C -1.2 °C 1022.6 hPa SSW 1.6 km/h 8 km/h 90% 0 mm 18 W/m2
07:50 0.1 °C -1.3 °C 1022.9 hPa SSW 3.2 km/h 8 km/h 90% 0 mm 21 W/m2
08:00 0.1 °C -1.3 °C 1022.9 hPa SW 4.8 km/h 8 km/h 90% 0 mm 23 W/m2
08:10 0.1 °C -1.5 °C 1022.9 hPa SW 3.2 km/h 8 km/h 89% 0 mm 28 W/m2
08:20 0.1 °C -1.5 °C 1022.9 hPa SW 3.2 km/h 8 km/h 89% 0 mm 35 W/m2
08:30 0.1 °C -1.5 °C 1022.6 hPa Calm   9.7 km/h 89% 0 mm 55 W/m2
08:40 0.1 °C -1.3 °C 1022.9 hPa WSW 3.2 km/h 9.7 km/h 90% 0 mm 66 W/m2
08:50 0.1 °C -1.2 °C 1022.9 hPa SW 4.8 km/h 9.7 km/h 91% 0 mm 71 W/m2
09:00 0.2 °C -1.2 °C 1022.9 hPa Calm   8 km/h 90% 0 mm 68 W/m2
09:10 0.3 °C -1 °C 1023.2 hPa Calm   4.8 km/h 91% 0 mm 75 W/m2
09:20 0.3 °C -1 °C 1023.2 hPa Calm   3.2 km/h 91% 0 mm 108 W/m2
09:30 0.5 °C -0.8 °C 1023.2 hPa West 3.2 km/h 4.8 km/h 91% 0 mm 141 W/m2
09:40 0.6 °C -1 °C 1023.6 hPa WSW 1.6 km/h 6.4 km/h 89% 0 mm 153 W/m2
09:50 0.8 °C -0.8 °C 1023.6 hPa West 3.2 km/h 8 km/h 89% 0 mm 151 W/m2
10:00 0.9 °C -1.2 °C 1023.6 hPa WSW 4.8 km/h 11.3 km/h 86% 0 mm 159 W/m2
10:10 1 °C -1.2 °C 1023.6 hPa WSW 8 km/h 11.3 km/h 85% 0 mm 172 W/m2
10:20 1 °C -1.4 °C 1023.6 hPa WSW 8 km/h 12.9 km/h 84% 0 mm 171 W/m2
10:30 1 °C -1.4 °C 1023.6 hPa WSW 8 km/h 17.7 km/h 84% 0 mm 167 W/m2
10:40 1.1 °C -1.2 °C 1023.6 hPa WSW 4.8 km/h 11.3 km/h 85% 0 mm 159 W/m2
10:50 1.1 °C -1.3 °C 1023.6 hPa WSW 8 km/h 9.7 km/h 84% 0 mm 181 W/m2
11:00 1.2 °C -1.4 °C 1023.6 hPa WSW 8 km/h 14.5 km/h 83% 0 mm 163 W/m2
11:10 1.3 °C -1.1 °C 1023.6 hPa WSW 4.8 km/h 9.7 km/h 84% 2.79 mm 165 W/m2
11:20 1.4 °C -1 °C 1023.2 hPa WSW 4.8 km/h 9.7 km/h 84% 0 mm 192 W/m2
11:30 1.5 °C -1.4 °C 1023.2 hPa WSW 9.7 km/h 11.3 km/h 81% 0 mm 227 W/m2
11:40 1.7 °C -0.9 °C 1023.2 hPa WSW 8 km/h 12.9 km/h 83% 0 mm 245 W/m2
11:50 1.8 °C -1.1 °C 1023.2 hPa WSW 8 km/h 17.7 km/h 81% 0 mm 220 W/m2
12:00 1.9 °C -1.3 °C 1022.9 hPa WSW 9.7 km/h 14.5 km/h 79% 0 mm 244 W/m2
12:10 2 °C -1.3 °C 1022.9 hPa WSW 8 km/h 14.5 km/h 79% 0 mm 250 W/m2
12:20 2 °C -1.6 °C 1022.6 hPa WSW 14.5 km/h 22.5 km/h 77% 0 mm 234 W/m2
12:30 2 °C -1.6 °C 1022.6 hPa WSW 11.3 km/h 22.5 km/h 77% 0 mm 251 W/m2
12:40 2.1 °C -1.9 °C 1022.6 hPa West 12.9 km/h 22.5 km/h 75% 0 mm 204 W/m2
12:50 2.2 °C -1.9 °C 1022.6 hPa WSW 9.7 km/h 24.1 km/h 74% 0 mm 188 W/m2
13:00 2.2 °C -1.9 °C 1022.6 hPa West 8 km/h 16.1 km/h 74% 0 mm 88 W/m2
13:10 2.1 °C -2.1 °C 1022.6 hPa West 8 km/h 19.3 km/h 74% 0 mm 80 W/m2
13:20 1.9 °C -2.1 °C 1022.2 hPa WNW 4.8 km/h 12.9 km/h 75% 0 mm 85 W/m2
13:30 1.8 °C -2.2 °C 1022.2 hPa WSW 12.9 km/h 24.1 km/h 75% 0 mm 135 W/m2
13:40 1.2 °C -1.7 °C 1022.2 hPa WSW 14.5 km/h 25.7 km/h 81% 0 mm 164 W/m2
13:50 1.1 °C -1.3 °C 1022.2 hPa WSW 9.7 km/h 17.7 km/h 84% 0 mm 150 W/m2
14:00 1.3 °C -1.1 °C 1022.2 hPa WSW 9.7 km/h 14.5 km/h 84% 0 mm 97 W/m2
14:10 1.6 °C -1 °C 1022.2 hPa WSW 8 km/h 14.5 km/h 83% 0 mm 184 W/m2
14:20 1.8 °C -1.3 °C 1022.2 hPa WNW 11.3 km/h 19.3 km/h 80% 0 mm 76 W/m2
14:30 1.7 °C -1.7 °C 1022.2 hPa WNW 12.9 km/h 24.1 km/h 78% 0 mm 73 W/m2
Knjazevac, Serbia
Compliments of Weather Underground - 2 mb